createdAt,value
2024-03-14T00:02:11.051Z,11.20
2024-03-14T00:04:38.955Z,11.10
2024-03-14T00:07:07.336Z,11.10
2024-03-14T00:09:35.399Z,11.00
2024-03-14T00:12:03.774Z,11.00
2024-03-14T00:14:33.464Z,11.00
2024-03-14T00:17:07.592Z,10.90
2024-03-14T00:19:36.082Z,10.90
2024-03-14T00:22:03.968Z,10.90
2024-03-14T00:24:32.009Z,10.80
2024-03-14T00:27:00.924Z,10.80
2024-03-14T00:29:28.879Z,10.80
2024-03-14T00:31:56.798Z,10.70
2024-03-14T00:34:24.848Z,10.60
2024-03-14T00:36:52.584Z,10.60
2024-03-14T00:39:21.084Z,10.50
2024-03-14T00:41:51.780Z,10.40
2024-03-14T00:44:19.855Z,10.40
2024-03-14T00:46:47.743Z,10.40
2024-03-14T00:49:16.640Z,10.30
2024-03-14T00:51:45.997Z,10.30
2024-03-14T00:54:14.275Z,10.30
2024-03-14T00:56:45.472Z,10.30
2024-03-14T00:59:14.590Z,10.30
2024-03-14T01:01:48.312Z,10.30
2024-03-14T01:04:16.905Z,10.30
2024-03-14T01:06:44.899Z,10.20
2024-03-14T01:09:14.830Z,10.20
2024-03-14T01:11:42.946Z,10.20
2024-03-14T01:14:13.104Z,10.10
2024-03-14T01:16:41.743Z,10.10
2024-03-14T01:19:09.664Z,10.10
2024-03-14T01:21:40.626Z,10.10
2024-03-14T01:24:09.047Z,10.10
2024-03-14T01:26:38.461Z,10.00
2024-03-14T01:29:08.575Z,10.00
2024-03-14T01:31:36.642Z,10.00
2024-03-14T01:34:04.696Z,9.90
2024-03-14T01:36:32.783Z,9.90
2024-03-14T01:39:00.887Z,9.90
2024-03-14T01:41:29.028Z,9.90
2024-03-14T01:44:00.316Z,9.90
2024-03-14T01:46:31.364Z,9.90
2024-03-14T01:49:01.334Z,9.90
2024-03-14T01:51:31.458Z,9.90
2024-03-14T01:54:01.234Z,9.90
2024-03-14T01:56:29.401Z,9.80
2024-03-14T01:58:57.460Z,9.80
2024-03-14T02:01:26.068Z,9.80
2024-03-14T02:04:14.240Z,9.80
2024-03-14T02:06:54.162Z,9.70
2024-03-14T02:09:25.214Z,9.70
2024-03-14T02:11:53.620Z,9.70
2024-03-14T02:14:21.924Z,9.70
2024-03-14T02:16:51.261Z,9.70
2024-03-14T02:19:19.654Z,9.60
2024-03-14T02:21:49.068Z,9.60
2024-03-14T02:24:18.740Z,9.60
2024-03-14T02:26:47.970Z,9.60
2024-03-14T02:29:16.108Z,9.60
2024-03-14T02:31:44.335Z,9.60
2024-03-14T02:34:12.466Z,9.70
2024-03-14T02:36:40.420Z,9.70
2024-03-14T02:39:09.013Z,9.70
2024-03-14T02:41:37.021Z,9.70
2024-03-14T02:44:16.978Z,9.70
2024-03-14T02:46:45.637Z,9.80
2024-03-14T02:49:15.851Z,9.80
2024-03-14T02:51:46.956Z,9.80
2024-03-14T02:54:18.611Z,9.80
2024-03-14T02:56:51.775Z,9.80
2024-03-14T02:59:20.762Z,9.80
2024-03-14T03:01:48.721Z,9.80
2024-03-14T03:04:16.827Z,9.70
2024-03-14T03:06:49.893Z,9.70
2024-03-14T03:09:18.336Z,9.70
2024-03-14T03:11:46.315Z,9.80
2024-03-14T03:14:14.458Z,9.80
2024-03-14T03:16:42.809Z,9.80
2024-03-14T03:19:14.726Z,9.90
2024-03-14T03:21:42.897Z,9.80
2024-03-14T03:24:10.956Z,9.80
2024-03-14T03:26:42.804Z,9.80
2024-03-14T03:29:14.121Z,9.70
2024-03-14T03:31:42.250Z,9.70
2024-03-14T03:34:10.673Z,9.80
2024-03-14T03:36:38.834Z,9.80
2024-03-14T03:39:14.732Z,9.80
2024-03-14T03:41:42.871Z,9.80
2024-03-14T03:44:10.760Z,9.80
2024-03-14T03:46:46.016Z,9.70
2024-03-14T03:49:14.394Z,9.70
2024-03-14T03:51:42.289Z,9.70
2024-03-14T03:54:10.530Z,9.70
2024-03-14T03:56:38.534Z,9.60
2024-03-14T03:59:09.687Z,9.60
2024-03-14T04:01:37.993Z,9.60
2024-03-14T04:04:06.255Z,9.60
2024-03-14T04:06:35.037Z,9.50
2024-03-14T04:09:03.529Z,9.50
2024-03-14T04:11:31.689Z,9.50
2024-03-14T04:13:59.562Z,9.50
2024-03-14T04:16:30.557Z,9.40
2024-03-14T04:18:58.608Z,9.40
2024-03-14T04:21:27.859Z,9.40
2024-03-14T04:23:58.170Z,9.30
2024-03-14T04:26:26.481Z,9.30
2024-03-14T04:28:54.472Z,9.30
2024-03-14T04:31:23.080Z,9.20
2024-03-14T04:33:51.131Z,9.20
2024-03-14T04:36:20.393Z,9.20
2024-03-14T04:38:48.873Z,9.10
2024-03-14T04:41:17.601Z,9.10
2024-03-14T04:43:48.686Z,9.10
2024-03-14T04:46:18.378Z,9.10
2024-03-14T04:48:47.206Z,9.10
2024-03-14T04:51:15.662Z,9.10
2024-03-14T04:53:43.723Z,9.10
2024-03-14T04:56:11.809Z,9.20
2024-03-14T04:58:40.328Z,9.20
2024-03-14T05:01:08.740Z,9.20
2024-03-14T05:03:36.989Z,9.30
2024-03-14T05:06:05.543Z,9.30
2024-03-14T05:08:33.580Z,9.40
2024-03-14T05:11:01.770Z,9.40
2024-03-14T05:13:30.750Z,9.40
2024-03-14T05:16:02.056Z,9.40
2024-03-14T05:18:30.446Z,9.40
2024-03-14T05:20:58.507Z,9.40
2024-03-14T05:23:26.596Z,9.50
2024-03-14T05:25:56.043Z,9.50
2024-03-14T05:28:24.277Z,9.50
2024-03-14T05:30:54.066Z,9.50
2024-03-14T05:33:22.300Z,9.50
2024-03-14T05:35:51.857Z,9.50
2024-03-14T05:38:20.145Z,9.50
2024-03-14T05:40:48.188Z,9.60
2024-03-14T05:43:16.593Z,9.60
2024-03-14T05:45:45.362Z,9.60
2024-03-14T05:48:14.058Z,9.70
2024-03-14T05:50:45.870Z,9.70
2024-03-14T05:53:14.113Z,9.70
2024-03-14T05:55:43.233Z,9.80
2024-03-14T05:58:12.106Z,9.90
2024-03-14T06:00:40.211Z,9.90
2024-03-14T06:03:09.059Z,10.00
2024-03-14T06:05:37.065Z,10.10
2024-03-14T06:08:05.756Z,10.20
2024-03-14T06:10:33.765Z,10.40
2024-03-14T06:13:02.476Z,10.50
2024-03-14T06:15:30.515Z,10.70
2024-03-14T06:17:58.602Z,10.80
2024-03-14T06:20:27.125Z,10.90
2024-03-14T06:22:55.354Z,11.00
2024-03-14T06:25:24.593Z,11.20
2024-03-14T06:27:54.190Z,11.30
2024-03-14T06:30:25.120Z,11.50
2024-03-14T06:32:54.278Z,11.60
2024-03-14T06:35:22.967Z,11.80
2024-03-14T06:37:55.279Z,11.90
2024-03-14T06:40:24.706Z,12.00
2024-03-14T06:42:52.723Z,12.20
2024-03-14T06:45:20.954Z,12.40
2024-03-14T06:47:49.129Z,12.60
2024-03-14T06:50:17.492Z,12.70
2024-03-14T06:52:45.556Z,12.90
2024-03-14T06:55:14.453Z,13.10
2024-03-14T06:57:46.320Z,13.20
2024-03-14T07:00:15.086Z,13.30
2024-03-14T07:02:45.808Z,13.40
2024-03-14T07:05:17.116Z,13.50
2024-03-14T07:07:48.726Z,13.60
2024-03-14T07:10:18.202Z,13.80
2024-03-14T07:12:49.478Z,13.90
2024-03-14T07:15:19.821Z,14.00
2024-03-14T07:17:48.317Z,14.10
2024-03-14T07:20:20.189Z,14.20
2024-03-14T07:22:48.554Z,14.30
2024-03-14T07:25:20.478Z,14.40
2024-03-14T07:27:50.213Z,14.50
2024-03-14T07:30:18.507Z,14.60
2024-03-14T07:32:48.905Z,14.60
2024-03-14T07:35:19.533Z,14.70
2024-03-14T07:37:49.207Z,14.80
2024-03-14T07:40:20.665Z,14.90
2024-03-14T07:42:48.936Z,14.90
2024-03-14T07:45:20.539Z,15.10
2024-03-14T07:47:54.593Z,15.10
2024-03-14T07:50:24.832Z,15.20
2024-03-14T07:52:55.811Z,15.30
2024-03-14T07:55:23.834Z,15.20
2024-03-14T07:57:52.836Z,15.30
2024-03-14T08:00:23.354Z,15.40
2024-03-14T08:02:57.600Z,15.50
2024-03-14T08:05:34.002Z,15.40
2024-03-14T08:08:14.202Z,15.40
2024-03-14T08:10:48.954Z,15.30
2024-03-14T08:13:23.337Z,15.40
2024-03-14T08:15:56.060Z,15.50
2024-03-14T08:18:25.286Z,15.70
2024-03-14T08:20:57.927Z,15.70
2024-03-14T08:23:28.226Z,15.80
2024-03-14T08:25:58.052Z,16.00
2024-03-14T08:28:26.104Z,16.20
2024-03-14T08:30:54.994Z,16.40
2024-03-14T08:33:26.104Z,16.60
2024-03-14T08:35:55.429Z,16.70
2024-03-14T08:38:23.890Z,16.80
2024-03-14T08:40:52.101Z,16.90
2024-03-14T08:43:20.115Z,17.20
2024-03-14T08:45:50.190Z,17.40
2024-03-14T08:48:19.843Z,17.60
2024-03-14T08:50:47.735Z,17.70
2024-03-14T08:53:17.068Z,17.80
2024-03-14T08:55:56.591Z,18.00
2024-03-14T08:58:27.657Z,18.20
2024-03-14T09:00:58.155Z,18.30
2024-03-14T09:03:26.519Z,18.40
2024-03-14T09:05:54.969Z,18.50
2024-03-14T09:08:26.723Z,18.70
2024-03-14T09:10:55.681Z,18.90
2024-03-14T09:13:25.421Z,19.00
2024-03-14T09:15:53.492Z,19.00
2024-03-14T09:18:27.968Z,18.80
2024-03-14T09:21:00.198Z,19.00
2024-03-14T09:23:30.596Z,19.30
2024-03-14T09:26:00.721Z,19.50
2024-03-14T09:28:29.598Z,19.60
2024-03-14T09:31:01.110Z,19.70
2024-03-14T09:33:32.647Z,19.80
2024-03-14T09:36:01.897Z,20.20
2024-03-14T09:38:29.905Z,19.90
2024-03-14T09:41:05.097Z,19.70
2024-03-14T09:43:38.071Z,19.70
2024-03-14T09:46:08.557Z,19.90
2024-03-14T09:48:37.687Z,20.20
2024-03-14T09:51:10.707Z,20.80
2024-03-14T09:53:41.303Z,21.10
2024-03-14T09:56:09.984Z,21.50
2024-03-14T09:58:39.773Z,21.20
2024-03-14T10:01:12.783Z,20.60
2024-03-14T10:03:41.869Z,20.60
2024-03-14T10:06:22.715Z,21.20
2024-03-14T10:08:52.908Z,21.70
2024-03-14T10:11:22.259Z,22.40
2024-03-14T10:13:52.033Z,22.70
2024-03-14T10:16:24.072Z,22.60
2024-03-14T10:18:53.572Z,22.30
2024-03-14T10:21:22.070Z,22.60
2024-03-14T10:23:51.582Z,23.10
2024-03-14T10:26:20.484Z,23.30
2024-03-14T10:28:48.619Z,24.00
2024-03-14T10:31:16.700Z,24.70
2024-03-14T10:33:44.979Z,25.10
2024-03-14T10:36:14.120Z,25.00
2024-03-14T10:38:45.665Z,24.40
2024-03-14T10:41:19.280Z,24.70
2024-03-14T10:44:01.748Z,24.90
2024-03-14T10:46:31.725Z,25.10
2024-03-14T10:49:01.881Z,26.00
2024-03-14T10:51:30.983Z,26.10
2024-03-14T10:54:05.841Z,26.80
2024-03-14T10:56:37.383Z,27.80
2024-03-14T10:59:07.953Z,28.40
2024-03-14T11:01:41.467Z,29.00
2024-03-14T11:04:14.810Z,29.30
2024-03-14T11:06:43.043Z,29.50
2024-03-14T11:09:15.177Z,29.90
2024-03-14T11:11:50.156Z,30.00
2024-03-14T11:14:20.924Z,30.50
2024-03-14T11:16:57.602Z,30.60
2024-03-14T11:19:27.772Z,30.80
2024-03-14T11:21:56.631Z,31.30
2024-03-14T11:24:30.932Z,31.60
2024-03-14T11:27:03.096Z,31.90
2024-03-14T11:29:34.959Z,31.80
2024-03-14T11:32:15.326Z,31.40
2024-03-14T11:34:43.411Z,31.30
2024-03-14T11:37:11.393Z,31.20
2024-03-14T11:39:39.564Z,31.30
2024-03-14T11:42:13.582Z,31.00
2024-03-14T11:44:49.032Z,31.30
2024-03-14T11:47:44.111Z,31.60
2024-03-14T11:50:14.980Z,31.80
2024-03-14T11:52:43.684Z,31.50
2024-03-14T11:55:13.487Z,31.90
2024-03-14T11:57:49.472Z,31.40
2024-03-14T12:00:27.250Z,31.70
2024-03-14T12:02:55.906Z,31.90
2024-03-14T12:05:27.151Z,31.90
2024-03-14T12:07:56.854Z,31.70
2024-03-14T12:10:25.160Z,31.60
2024-03-14T12:12:53.265Z,30.60
2024-03-14T12:15:22.627Z,30.40
2024-03-14T12:18:00.010Z,30.50
2024-03-14T12:20:30.064Z,31.10
2024-03-14T12:22:58.749Z,31.90
2024-03-14T12:25:27.788Z,32.30
2024-03-14T12:28:00.826Z,33.00
2024-03-14T12:30:30.478Z,32.90
2024-03-14T12:33:02.818Z,33.00
2024-03-14T12:35:31.174Z,33.70
2024-03-14T12:38:03.133Z,33.90
2024-03-14T12:40:33.601Z,34.20
2024-03-14T12:43:02.525Z,33.60
2024-03-14T12:45:32.809Z,33.50
2024-03-14T12:48:03.084Z,33.40
2024-03-14T12:50:31.254Z,33.00
2024-03-14T12:53:09.683Z,33.30
2024-03-14T12:55:37.888Z,33.60
2024-03-14T12:58:22.918Z,34.00
2024-03-14T13:00:54.999Z,33.80
2024-03-14T13:03:26.780Z,33.80
2024-03-14T13:05:59.541Z,33.90
2024-03-14T13:08:30.023Z,33.80
2024-03-14T13:11:12.922Z,33.60
2024-03-14T13:13:42.297Z,33.80
2024-03-14T13:16:17.243Z,32.30
2024-03-14T13:18:47.366Z,30.50
2024-03-14T13:21:15.820Z,30.80
2024-03-14T13:23:43.832Z,31.10
2024-03-14T13:26:19.577Z,31.70
2024-03-14T13:28:47.723Z,30.70
2024-03-14T13:31:17.638Z,29.00
2024-03-14T13:33:46.631Z,27.70
2024-03-14T13:36:15.024Z,27.60
2024-03-14T13:38:44.360Z,27.70
2024-03-14T13:41:14.489Z,26.40
2024-03-14T13:43:42.513Z,25.10
2024-03-14T13:46:13.042Z,24.00
2024-03-14T13:48:41.307Z,24.40
2024-03-14T13:51:09.587Z,25.90
2024-03-14T13:53:41.241Z,26.90
2024-03-14T13:56:14.762Z,27.30
2024-03-14T13:58:45.659Z,27.00
2024-03-14T14:01:23.352Z,25.90
2024-03-14T14:03:59.622Z,24.50
2024-03-14T14:06:28.304Z,23.70
2024-03-14T14:08:57.361Z,23.10
2024-03-14T14:11:27.235Z,22.30
2024-03-14T14:13:57.164Z,22.10
2024-03-14T14:16:25.544Z,22.30
2024-03-14T14:18:53.744Z,23.10
2024-03-14T14:21:23.423Z,23.70
2024-03-14T14:23:52.444Z,23.90
2024-03-14T14:26:21.686Z,23.90
2024-03-14T14:28:51.021Z,24.10
2024-03-14T14:31:19.157Z,24.50
2024-03-14T14:33:47.580Z,24.90
2024-03-14T14:36:15.710Z,25.50
2024-03-14T14:38:43.852Z,26.80
2024-03-14T14:41:11.908Z,28.20
2024-03-14T14:43:40.089Z,28.90
2024-03-14T14:46:08.979Z,28.10
2024-03-14T14:48:38.773Z,27.80
2024-03-14T14:51:07.010Z,27.10
2024-03-14T14:53:35.910Z,28.50
2024-03-14T14:56:16.495Z,30.00
2024-03-14T14:58:47.269Z,31.10
2024-03-14T15:01:18.309Z,32.40
2024-03-14T15:03:48.808Z,33.10
2024-03-14T15:06:17.698Z,33.30
2024-03-14T15:08:47.409Z,33.40
2024-03-14T15:11:16.576Z,33.40
2024-03-14T15:13:45.123Z,33.20
2024-03-14T15:16:13.392Z,33.50
2024-03-14T15:18:42.326Z,33.60
2024-03-14T15:21:12.625Z,33.70
2024-03-14T15:23:40.668Z,33.90
2024-03-14T15:26:13.102Z,34.20
2024-03-14T15:28:42.704Z,34.30
2024-03-14T15:31:14.786Z,33.80
2024-03-14T15:33:44.610Z,33.90
2024-03-14T15:36:19.027Z,33.60
2024-03-14T15:38:48.317Z,33.20
2024-03-14T15:41:16.652Z,32.70
2024-03-14T15:43:44.791Z,32.10
2024-03-14T15:46:18.584Z,31.20
2024-03-14T15:48:47.450Z,30.50
2024-03-14T15:51:18.929Z,29.50
2024-03-14T15:53:50.486Z,28.80
2024-03-14T15:56:19.745Z,27.70
2024-03-14T15:58:48.843Z,27.60
2024-03-14T16:01:17.368Z,28.10
2024-03-14T16:03:45.697Z,28.70
2024-03-14T16:06:14.258Z,29.60
2024-03-14T16:08:51.715Z,29.30
2024-03-14T16:11:24.304Z,28.70
2024-03-14T16:13:54.878Z,27.60
2024-03-14T16:16:23.794Z,26.60
2024-03-14T16:18:52.968Z,26.20
2024-03-14T16:21:27.009Z,25.80
2024-03-14T16:23:56.622Z,24.90
2024-03-14T16:26:25.033Z,24.00
2024-03-14T16:28:53.422Z,23.20
2024-03-14T16:31:23.886Z,22.40
2024-03-14T16:33:54.523Z,21.70
2024-03-14T16:36:22.500Z,21.00
2024-03-14T16:38:50.502Z,20.30
2024-03-14T16:41:21.375Z,19.70
2024-03-14T16:43:49.597Z,19.30
2024-03-14T16:46:17.842Z,19.10
2024-03-14T16:48:47.066Z,18.80
2024-03-14T16:51:15.460Z,18.60
2024-03-14T16:53:43.550Z,18.40
2024-03-14T16:56:14.322Z,18.20
2024-03-14T16:58:42.295Z,18.00
2024-03-14T17:01:11.718Z,17.80
2024-03-14T17:03:39.814Z,17.70
2024-03-14T17:06:07.968Z,17.60
2024-03-14T17:08:36.014Z,17.40
2024-03-14T17:11:04.970Z,17.30
2024-03-14T17:13:33.115Z,17.20
2024-03-14T17:16:02.572Z,17.10
2024-03-14T17:18:32.201Z,16.90
2024-03-14T17:21:01.870Z,16.80
2024-03-14T17:23:30.020Z,16.60
2024-03-14T17:25:57.887Z,16.60
2024-03-14T17:28:26.690Z,16.50
2024-03-14T17:30:55.873Z,16.40
2024-03-14T17:33:24.196Z,16.30
2024-03-14T17:35:52.499Z,16.20
2024-03-14T17:38:22.833Z,16.10
2024-03-14T17:40:50.917Z,16.00
2024-03-14T17:43:18.898Z,15.90
2024-03-14T17:45:47.325Z,15.80
2024-03-14T17:48:15.592Z,15.70
2024-03-14T17:50:43.802Z,15.70
2024-03-14T17:53:12.111Z,15.70
2024-03-14T17:55:40.230Z,15.60
2024-03-14T17:58:08.833Z,15.60
2024-03-14T18:00:38.358Z,15.60
2024-03-14T18:03:07.920Z,15.50
2024-03-14T18:05:37.882Z,15.50
2024-03-14T18:08:06.436Z,15.50
2024-03-14T18:10:34.481Z,15.40
2024-03-14T18:13:02.656Z,15.40
2024-03-14T18:15:31.324Z,15.30
2024-03-14T18:17:59.771Z,15.30
2024-03-14T18:20:28.631Z,15.30
2024-03-14T18:23:00.060Z,15.20
2024-03-14T18:25:28.147Z,15.20
2024-03-14T18:27:56.256Z,15.20
2024-03-14T18:30:24.405Z,15.20
2024-03-14T18:32:54.745Z,15.10
2024-03-14T18:35:24.448Z,15.10
2024-03-14T18:37:53.591Z,15.10
2024-03-14T18:40:28.721Z,15.00
2024-03-14T18:43:02.316Z,15.00
2024-03-14T18:45:31.842Z,15.00
2024-03-14T18:48:05.407Z,15.00
2024-03-14T18:50:33.650Z,15.00
2024-03-14T18:53:01.509Z,15.00
2024-03-14T18:55:29.779Z,15.00
2024-03-14T18:57:59.153Z,14.90
2024-03-14T19:00:27.903Z,15.00
2024-03-14T19:02:56.269Z,14.90
2024-03-14T19:05:29.105Z,14.90
2024-03-14T19:08:04.116Z,14.90
2024-03-14T19:10:34.633Z,14.90
2024-03-14T19:13:04.635Z,14.80
2024-03-14T19:15:36.014Z,14.80
2024-03-14T19:18:04.362Z,14.80
2024-03-14T19:20:32.583Z,14.70
2024-03-14T19:23:03.276Z,14.70
2024-03-14T19:25:32.456Z,14.60
2024-03-14T19:28:00.928Z,14.60
2024-03-14T19:30:30.444Z,14.60
2024-03-14T19:32:58.424Z,14.60
2024-03-14T19:35:26.965Z,14.60
2024-03-14T19:37:56.768Z,14.50
2024-03-14T19:40:27.040Z,14.50
2024-03-14T19:42:55.108Z,14.50
2024-03-14T19:45:23.294Z,14.40
2024-03-14T19:47:51.747Z,14.40
2024-03-14T19:50:22.765Z,14.40
2024-03-14T19:52:51.249Z,14.40
2024-03-14T19:55:19.333Z,14.40
2024-03-14T19:57:47.461Z,14.30
2024-03-14T20:00:17.894Z,14.30
2024-03-14T20:02:48.456Z,14.30
2024-03-14T20:05:20.034Z,14.30
2024-03-14T20:07:48.551Z,14.30
2024-03-14T20:10:18.319Z,14.30
2024-03-14T20:12:46.422Z,14.30
2024-03-14T20:15:14.440Z,14.20
2024-03-14T20:17:42.882Z,14.20
2024-03-14T20:20:13.812Z,14.20
2024-03-14T20:22:42.424Z,14.20
2024-03-14T20:25:14.251Z,14.10
2024-03-14T20:27:45.410Z,14.10
2024-03-14T20:30:15.221Z,14.00
2024-03-14T20:32:45.029Z,14.00
2024-03-14T20:35:17.045Z,14.00
2024-03-14T20:37:45.268Z,13.90
2024-03-14T20:40:16.506Z,13.90
2024-03-14T20:42:44.758Z,13.80
2024-03-14T20:45:15.722Z,13.70
2024-03-14T20:47:44.175Z,13.70
2024-03-14T20:50:15.268Z,13.60
2024-03-14T20:52:44.640Z,13.60
2024-03-14T20:55:22.731Z,13.50
2024-03-14T20:58:02.248Z,13.50
2024-03-14T21:00:33.592Z,13.50
2024-03-14T21:03:03.123Z,13.40
2024-03-14T21:05:31.146Z,13.40
2024-03-14T21:08:05.913Z,13.30
2024-03-14T21:10:37.045Z,13.30
2024-03-14T21:13:06.308Z,13.30
2024-03-14T21:15:36.937Z,13.30
2024-03-14T21:18:05.230Z,13.30
2024-03-14T21:20:33.578Z,13.30
2024-03-14T21:23:01.962Z,13.30
2024-03-14T21:25:30.386Z,13.20
2024-03-14T21:28:01.822Z,13.20
2024-03-14T21:30:30.419Z,13.20
2024-03-14T21:32:58.846Z,13.20
2024-03-14T21:35:26.799Z,13.20
2024-03-14T21:37:54.804Z,13.20
2024-03-14T21:40:24.615Z,13.10
2024-03-14T21:42:53.924Z,13.10
2024-03-14T21:45:22.245Z,13.10
2024-03-14T21:47:50.604Z,13.10
2024-03-14T21:50:18.778Z,13.10
2024-03-14T21:52:47.048Z,13.10
2024-03-14T21:55:18.772Z,13.00
2024-03-14T21:57:49.078Z,13.00
2024-03-14T22:00:20.241Z,13.00
2024-03-14T22:02:51.110Z,12.90
2024-03-14T22:05:22.691Z,12.90
2024-03-14T22:07:51.004Z,12.90
2024-03-14T22:10:18.982Z,12.90
2024-03-14T22:12:47.036Z,12.90
2024-03-14T22:15:16.152Z,12.90
2024-03-14T22:17:47.570Z,12.90
2024-03-14T22:20:21.363Z,12.80
2024-03-14T22:22:51.693Z,12.80
2024-03-14T22:25:20.836Z,12.80
2024-03-14T22:27:49.149Z,12.70
2024-03-14T22:30:18.661Z,12.70
2024-03-14T22:32:48.832Z,12.70
2024-03-14T22:35:17.374Z,12.70
2024-03-14T22:37:45.645Z,12.70
2024-03-14T22:40:14.097Z,12.70
2024-03-14T22:42:42.511Z,12.60
2024-03-14T22:45:12.934Z,12.60
2024-03-14T22:47:41.066Z,12.60
2024-03-14T22:50:10.163Z,12.50
2024-03-14T22:52:38.617Z,12.50
2024-03-14T22:55:07.000Z,12.40
2024-03-14T22:57:35.160Z,12.40
2024-03-14T23:00:18.037Z,12.30
2024-03-14T23:02:46.699Z,12.20
2024-03-14T23:05:14.679Z,12.20
2024-03-14T23:07:43.030Z,12.10
2024-03-14T23:10:11.064Z,12.10
2024-03-14T23:12:39.400Z,12.00
2024-03-14T23:15:08.171Z,12.00
2024-03-14T23:17:37.480Z,12.00
2024-03-14T23:20:06.710Z,11.90
2024-03-14T23:22:35.096Z,11.90
2024-03-14T23:25:08.221Z,11.80
2024-03-14T23:27:38.507Z,11.80
2024-03-14T23:30:07.426Z,11.80
2024-03-14T23:32:37.011Z,11.80
2024-03-14T23:35:07.117Z,11.70
2024-03-14T23:37:35.852Z,11.70
2024-03-14T23:40:04.165Z,11.70
2024-03-14T23:42:37.250Z,11.80
2024-03-14T23:45:11.448Z,11.80
2024-03-14T23:47:41.037Z,11.80
2024-03-14T23:50:10.388Z,11.80
2024-03-14T23:52:38.850Z,11.70
2024-03-14T23:55:07.173Z,11.70
2024-03-14T23:57:35.417Z,11.60
